Joelton, TN

9:39 PM CDT on June 26, 2017 (GMT -0500)
New Hope Rd | | Change Station

Elev 705 ft 36.37 °N, 86.93 °W | Updated 2 seconds ago

Partly Cloudy
Partly Cloudy
68.3 °F
Feels Like 68.3 °F
N
0.0
Wind Variable Wind from NW
Gusts 1.0 mph

Today
High -- | Low -- °F
--% Chance of Precip.
Yesterday
High -- | Low -- °F
Precip. -- in
Pressure 30.09 in
Visibility 10.0 miles
Clouds Scattered Clouds 12000 ft
Mostly Cloudy 15000 ft
Mostly Cloudy 20000 ft
Dew Point 60 °F
Humidity 74%
Rainfall 0.00 in
Snow Depth Not available.
5:31 AM 8:09 PM
Waxing Crescent, 13% visible
METAR KBNA 270153Z 01006KT 10SM SCT120 BKN150 BKN200 22/11 A3010 RMK AO2 SLP187 T02220106
Pressure 30.09 in
Visibility 10.0 miles
Clouds Scattered Clouds 12000 ft
Mostly Cloudy 15000 ft
Mostly Cloudy 20000 ft
Dew Point 60 °F
Humidity 74%
Rainfall 0.00 in
Snow Depth Not available.
5:31 AM 8:09 PM
Waxing Crescent, 13% visible
METAR KBNA 270153Z 01006KT 10SM SCT120 BKN150 BKN200 22/11 A3010 RMK AO2 SLP187 T02220106

Get Severe Weather Alerts

Thanks for signing up!

Be on the lookout for a verification email in your inbox.

You'll start receiving the daily forecast at 6 AM.

×

10-Day Weather Forecast

Almanac

Astronomy

Jun. 26, 2017 Rise Set
Actual Time
Civil Twilight
Nautical Twilight
Astronomical Twilight
Moon
Length of Visible Light
Length of Day
Tomorrow will be .
, % of the Moon is Illuminated

Today's Extremes

State Highs State Lows

Community

WunderPhotos

Category 6

Welcome to Category 6. This is the collective home for Weather Underground's featured writeups by Dr. Jeff Masters (right), Bob Henson (left), Chris Burt, and other regular contributors.

Nearby

Air Quality

  Air Quality AQ Index Pollutant
Not available.

Snow Depth

Station Depth Elevation

Earthquake Activity

City Distance Mag. Time & Date
Minimum magnitude displayed is 2.5.

Coastal Water Temperatures

Place Temperature

Stations

Nearby Weather Stations

Station Location Temp. Windchill Dew Point Humidity Wind Precip. Elev Updated Type
                   

Watches & Warnings

There are currently no watches in effect.